createdAt,value
2018-11-02T00:00:38.171Z,10.20
2018-11-02T00:03:07.594Z,10.17
2018-11-02T00:05:37.760Z,10.15
2018-11-02T00:08:08.315Z,10.15
2018-11-02T00:10:37.175Z,10.15
2018-11-02T00:13:07.099Z,10.15
2018-11-02T00:15:35.924Z,10.19
2018-11-02T00:18:04.851Z,10.20
2018-11-02T00:20:33.824Z,10.23
2018-11-02T00:23:02.719Z,10.22
2018-11-02T00:25:31.677Z,10.24
2018-11-02T00:28:00.590Z,10.25
2018-11-02T00:30:29.366Z,10.24
2018-11-02T00:32:58.246Z,10.28
2018-11-02T00:35:27.085Z,10.29
2018-11-02T00:37:56.074Z,10.31
2018-11-02T00:40:25.696Z,10.35
2018-11-02T00:42:55.035Z,10.40
2018-11-02T00:45:24.025Z,10.41
2018-11-02T00:47:54.157Z,10.44
2018-11-02T00:50:23.135Z,10.46
2018-11-02T00:52:52.467Z,10.52
2018-11-02T00:55:22.622Z,10.53
2018-11-02T00:57:51.648Z,10.52
2018-11-02T01:00:21.129Z,10.55
2018-11-02T01:02:50.057Z,10.56
2018-11-02T01:05:20.380Z,10.62
2018-11-02T01:07:50.344Z,10.60
2018-11-02T01:10:19.384Z,10.54
2018-11-02T01:12:48.875Z,10.54
2018-11-02T01:15:18.027Z,10.54
2018-11-02T01:17:47.032Z,10.55
2018-11-02T01:20:16.192Z,10.55
2018-11-02T01:22:45.287Z,10.55
2018-11-02T01:25:14.620Z,10.56
2018-11-02T01:27:43.679Z,10.58
2018-11-02T01:30:12.720Z,10.61
2018-11-02T01:32:41.712Z,10.63
2018-11-02T01:35:10.734Z,10.65
2018-11-02T01:37:40.438Z,10.64
2018-11-02T01:40:10.343Z,10.64
2018-11-02T01:42:39.715Z,10.65
2018-11-02T01:45:08.590Z,10.62
2018-11-02T01:47:38.356Z,10.63
2018-11-02T01:50:07.623Z,10.64
2018-11-02T01:52:36.705Z,10.62
2018-11-02T01:55:07.319Z,10.61
2018-11-02T01:57:36.272Z,10.64
2018-11-02T02:00:06.425Z,10.67
2018-11-02T02:02:35.386Z,10.68
2018-11-02T02:05:04.426Z,10.69
2018-11-02T02:07:34.302Z,10.69
2018-11-02T02:10:03.469Z,10.68
2018-11-02T02:12:33.081Z,10.69
2018-11-02T02:15:02.460Z,10.67
2018-11-02T02:17:31.346Z,10.68
2018-11-02T02:20:00.267Z,10.68
2018-11-02T02:22:29.145Z,10.69
2018-11-02T02:24:58.253Z,10.70
2018-11-02T02:27:27.221Z,10.72
2018-11-02T02:29:56.213Z,10.71
2018-11-02T02:32:25.309Z,10.73
2018-11-02T02:34:56.144Z,10.75
2018-11-02T02:37:25.262Z,10.74
2018-11-02T02:39:54.712Z,10.76
2018-11-02T02:42:24.445Z,10.78
2018-11-02T02:44:53.473Z,10.81
2018-11-02T02:47:23.517Z,10.83
2018-11-02T02:49:52.927Z,10.82
2018-11-02T02:52:21.932Z,10.81
2018-11-02T02:54:51.939Z,10.81
2018-11-02T02:57:21.017Z,10.79
2018-11-02T02:59:50.794Z,10.78
2018-11-02T03:02:19.647Z,10.78
2018-11-02T03:04:48.676Z,10.79
2018-11-02T03:07:18.169Z,10.79
2018-11-02T03:09:47.166Z,10.78
2018-11-02T03:12:16.778Z,10.76
2018-11-02T03:14:46.022Z,10.76
2018-11-02T03:17:15.257Z,10.78
2018-11-02T03:19:45.756Z,10.78
2018-11-02T03:22:14.879Z,10.81
2018-11-02T03:24:43.887Z,10.81
2018-11-02T03:27:13.146Z,10.82
2018-11-02T03:29:42.139Z,10.83
2018-11-02T03:32:12.090Z,10.83
2018-11-02T03:34:41.070Z,10.80
2018-11-02T03:37:10.099Z,10.82
2018-11-02T03:39:39.096Z,10.82
2018-11-02T03:42:08.701Z,10.84
2018-11-02T03:44:37.590Z,10.83
2018-11-02T03:47:07.443Z,10.82
2018-11-02T03:49:37.325Z,10.81
2018-11-02T03:52:06.727Z,10.83
2018-11-02T03:54:36.629Z,10.85
2018-11-02T03:57:06.639Z,10.85
2018-11-02T03:59:36.032Z,10.83
2018-11-02T04:02:05.018Z,10.82
2018-11-02T04:04:34.013Z,10.80
2018-11-02T04:07:03.629Z,10.78
2018-11-02T04:09:32.579Z,10.77
2018-11-02T04:12:02.081Z,10.79
2018-11-02T04:14:30.826Z,10.81
2018-11-02T04:16:59.587Z,10.84
2018-11-02T04:19:28.883Z,10.86
2018-11-02T04:21:57.656Z,10.90
2018-11-02T04:24:26.649Z,10.90
2018-11-02T04:26:55.605Z,10.91
2018-11-02T04:29:25.690Z,10.91
2018-11-02T04:31:54.657Z,10.91
2018-11-02T04:34:23.459Z,10.93
2018-11-02T04:36:52.507Z,10.99
2018-11-02T04:39:21.459Z,11.00
2018-11-02T04:41:51.064Z,11.02
2018-11-02T04:44:19.974Z,11.07
2018-11-02T04:46:49.467Z,11.10
2018-11-02T04:49:18.862Z,11.14
2018-11-02T04:51:47.663Z,11.14
2018-11-02T04:54:17.298Z,11.14
2018-11-02T04:56:46.214Z,11.13
2018-11-02T04:59:15.656Z,11.14
2018-11-02T05:01:45.334Z,11.14
2018-11-02T05:04:14.348Z,11.16
2018-11-02T05:06:43.798Z,11.17
2018-11-02T05:09:12.862Z,11.20
2018-11-02T05:11:42.432Z,11.22
2018-11-02T05:14:11.393Z,11.20
2018-11-02T05:16:40.244Z,11.21
2018-11-02T05:19:09.863Z,11.23
2018-11-02T05:21:38.647Z,11.26
2018-11-02T05:24:07.467Z,11.29
2018-11-02T05:26:37.168Z,11.29
2018-11-02T05:29:06.416Z,11.29
2018-11-02T05:31:35.248Z,11.28
2018-11-02T05:34:04.215Z,11.27
2018-11-02T05:36:33.149Z,11.29
2018-11-02T05:39:02.247Z,11.31
2018-11-02T05:41:31.106Z,11.32
2018-11-02T05:44:14.855Z,11.28
2018-11-02T05:46:44.838Z,11.27
2018-11-02T05:49:14.477Z,11.31
2018-11-02T05:51:43.483Z,11.33
2018-11-02T05:54:13.179Z,11.35
2018-11-02T05:56:42.024Z,11.38
2018-11-02T05:59:11.592Z,11.36
2018-11-02T06:01:41.081Z,11.36
2018-11-02T06:04:09.880Z,11.37
2018-11-02T06:06:39.329Z,11.39
2018-11-02T06:09:08.647Z,11.36
2018-11-02T06:11:38.104Z,11.35
2018-11-02T06:14:06.950Z,11.34
2018-11-02T06:16:35.797Z,11.34
2018-11-02T06:19:06.042Z,11.33
2018-11-02T06:21:34.947Z,11.31
2018-11-02T06:24:04.825Z,11.32
2018-11-02T06:26:33.644Z,11.33
2018-11-02T06:29:02.596Z,11.35
2018-11-02T06:31:31.458Z,11.35
2018-11-02T06:34:00.350Z,11.35
2018-11-02T06:36:29.315Z,11.36
2018-11-02T06:38:58.412Z,11.38
2018-11-02T06:41:27.843Z,11.38
2018-11-02T06:43:57.588Z,11.39
2018-11-02T06:46:27.299Z,11.39
2018-11-02T06:48:57.057Z,11.41
2018-11-02T06:51:26.157Z,11.39
2018-11-02T06:53:55.812Z,11.42
2018-11-02T06:56:24.900Z,11.42
2018-11-02T06:58:53.867Z,11.45
2018-11-02T07:01:23.459Z,11.48
2018-11-02T07:03:52.474Z,11.48
2018-11-02T07:06:21.998Z,11.48
2018-11-02T07:08:51.016Z,11.48
2018-11-02T07:11:20.626Z,11.47
2018-11-02T07:13:49.580Z,11.45
2018-11-02T07:16:18.720Z,11.42
2018-11-02T07:18:48.582Z,11.42
2018-11-02T07:21:17.399Z,11.42
2018-11-02T07:23:47.193Z,11.40
2018-11-02T07:26:16.258Z,11.40
2018-11-02T07:28:49.490Z,11.39
2018-11-02T07:31:18.458Z,11.41
2018-11-02T07:33:47.335Z,11.41
2018-11-02T07:36:16.354Z,11.43
2018-11-02T07:38:46.346Z,11.42
2018-11-02T07:41:15.404Z,11.42
2018-11-02T07:43:45.046Z,11.45
2018-11-02T07:46:14.770Z,11.45
2018-11-02T07:48:45.500Z,11.48
2018-11-02T07:51:14.629Z,11.51
2018-11-02T07:53:43.729Z,11.56
2018-11-02T07:56:12.698Z,11.61
2018-11-02T07:58:41.609Z,11.64
2018-11-02T08:01:11.270Z,11.69
2018-11-02T08:03:40.925Z,11.72
2018-11-02T08:06:10.574Z,11.77
2018-11-02T08:08:39.414Z,11.83
2018-11-02T08:11:09.006Z,11.89
2018-11-02T08:13:37.880Z,11.97
2018-11-02T08:16:07.138Z,11.92
2018-11-02T08:18:36.681Z,11.94
2018-11-02T08:21:06.052Z,11.96
2018-11-02T08:23:34.888Z,11.97
2018-11-02T08:26:03.754Z,11.95
2018-11-02T08:28:32.656Z,11.96
2018-11-02T08:31:01.990Z,11.99
2018-11-02T08:33:30.894Z,12.08
2018-11-02T08:35:59.868Z,12.13
2018-11-02T08:38:28.771Z,12.21
2018-11-02T08:40:58.740Z,12.23
2018-11-02T08:43:28.058Z,12.24
2018-11-02T08:46:01.447Z,12.26
2018-11-02T08:48:30.982Z,12.26
2018-11-02T08:50:59.899Z,12.24
2018-11-02T08:53:28.799Z,12.24
2018-11-02T08:55:58.064Z,12.21
2018-11-02T08:58:27.266Z,12.19
2018-11-02T09:00:56.746Z,12.19
2018-11-02T09:03:26.252Z,12.23
2018-11-02T09:05:56.048Z,12.21
2018-11-02T09:08:25.156Z,12.21
2018-11-02T09:10:55.039Z,12.25
2018-11-02T09:13:24.119Z,12.28
2018-11-02T09:15:53.496Z,12.25
2018-11-02T09:18:23.673Z,12.24
2018-11-02T09:20:53.656Z,12.26
2018-11-02T09:23:23.681Z,12.26
2018-11-02T09:25:52.777Z,12.29
2018-11-02T09:28:22.039Z,12.27
2018-11-02T09:30:51.113Z,12.29
2018-11-02T09:33:21.579Z,12.26
2018-11-02T09:35:50.681Z,12.23
2018-11-02T09:38:19.637Z,12.23
2018-11-02T09:40:48.509Z,12.27
2018-11-02T09:43:18.218Z,12.29
2018-11-02T09:45:48.090Z,12.31
2018-11-02T09:49:22.987Z,12.33
2018-11-02T09:51:51.994Z,12.32
2018-11-02T09:54:21.178Z,12.34
2018-11-02T09:56:50.365Z,12.31
2018-11-02T09:59:20.386Z,12.25
2018-11-02T10:01:49.707Z,12.23
2018-11-02T10:04:21.782Z,12.24
2018-11-02T10:06:51.594Z,12.23
2018-11-02T10:09:20.875Z,12.24
2018-11-02T10:11:49.989Z,12.26
2018-11-02T10:14:19.952Z,12.32
2018-11-02T10:16:48.911Z,12.37
2018-11-02T10:19:24.632Z,12.39
2018-11-02T10:21:53.700Z,12.45
2018-11-02T10:24:22.992Z,12.49
2018-11-02T10:26:52.468Z,12.53
2018-11-02T10:29:22.991Z,12.53
2018-11-02T10:31:52.297Z,12.54
2018-11-02T10:34:23.823Z,12.58
2018-11-02T10:36:52.972Z,12.61
2018-11-02T10:39:22.478Z,12.62
2018-11-02T10:41:55.764Z,12.53
2018-11-02T10:44:27.270Z,12.46
2018-11-02T10:46:57.191Z,12.35
2018-11-02T10:50:29.715Z,12.30
2018-11-02T10:52:58.588Z,12.31
2018-11-02T10:55:27.782Z,12.29
2018-11-02T10:57:56.914Z,12.32
2018-11-02T11:00:31.984Z,12.42
2018-11-02T11:03:16.567Z,12.52
2018-11-02T11:05:49.147Z,12.63
2018-11-02T11:08:18.423Z,12.75
2018-11-02T11:10:47.627Z,12.84
2018-11-02T11:13:17.705Z,12.98
2018-11-02T11:15:46.511Z,13.07
2018-11-02T11:18:15.659Z,13.14
2018-11-02T11:20:49.623Z,13.23
2018-11-02T11:23:18.678Z,13.25
2018-11-02T11:25:47.617Z,13.27
2018-11-02T11:28:16.743Z,13.28
2018-11-02T11:30:46.062Z,13.29
2018-11-02T11:33:15.430Z,13.26
2018-11-02T11:35:44.559Z,13.25
2018-11-02T11:38:13.606Z,13.22
2018-11-02T11:40:43.422Z,13.17
2018-11-02T11:43:13.111Z,13.11
2018-11-02T11:45:43.321Z,13.10
2018-11-02T11:48:13.590Z,13.08
2018-11-02T11:50:42.792Z,13.10
2018-11-02T11:53:11.820Z,13.13
2018-11-02T11:58:30.459Z,13.13
2018-11-02T12:01:00.765Z,13.10
2018-11-02T12:03:30.251Z,13.10
2018-11-02T12:05:59.864Z,13.09
2018-11-02T12:08:28.831Z,13.10
2018-11-02T12:10:58.708Z,13.09
2018-11-02T12:13:27.807Z,13.06
2018-11-02T12:15:56.920Z,13.06
2018-11-02T12:18:26.592Z,13.04
2018-11-02T12:20:56.688Z,13.04
2018-11-02T12:23:25.645Z,13.07
2018-11-02T12:25:55.805Z,13.13
2018-11-02T12:28:24.838Z,13.12
2018-11-02T12:30:54.729Z,13.19
2018-11-02T12:33:23.626Z,13.22
2018-11-02T12:35:53.508Z,13.19
2018-11-02T12:38:23.335Z,13.16
2018-11-02T12:40:54.359Z,13.13
2018-11-02T12:43:24.348Z,13.09
2018-11-02T12:45:53.695Z,13.10
2018-11-02T12:48:23.672Z,13.13
2018-11-02T12:50:52.916Z,13.17
2018-11-02T12:53:22.003Z,13.18
2018-11-02T12:55:51.126Z,13.21
2018-11-02T12:58:20.383Z,13.21
2018-11-02T13:00:49.889Z,13.32
2018-11-02T13:03:18.962Z,13.31
2018-11-02T13:05:48.664Z,13.32
2018-11-02T13:08:18.006Z,13.35
2018-11-02T13:10:49.406Z,13.31
2018-11-02T13:13:19.071Z,13.32
2018-11-02T13:15:48.103Z,13.37
2018-11-02T13:18:19.495Z,13.34
2018-11-02T13:20:48.809Z,13.30
2018-11-02T13:23:17.652Z,13.26
2018-11-02T13:25:46.789Z,13.22
2018-11-02T13:28:16.187Z,13.18
2018-11-02T13:30:45.387Z,13.16
2018-11-02T13:33:14.342Z,13.14
2018-11-02T13:35:43.401Z,13.14
2018-11-02T13:38:12.359Z,13.13
2018-11-02T13:40:42.034Z,13.12
2018-11-02T13:43:11.599Z,13.07
2018-11-02T13:45:40.902Z,13.04
2018-11-02T13:48:10.553Z,13.02
2018-11-02T13:50:39.488Z,13.04
2018-11-02T13:53:08.481Z,13.00
2018-11-02T13:55:37.371Z,12.98
2018-11-02T13:58:08.286Z,12.99
2018-11-02T14:00:38.020Z,13.00
2018-11-02T14:03:06.961Z,12.96
2018-11-02T14:05:36.615Z,12.96
2018-11-02T14:08:05.715Z,12.94
2018-11-02T14:10:34.645Z,12.92
2018-11-02T14:13:04.009Z,12.85
2018-11-02T14:15:32.947Z,12.80
2018-11-02T14:18:01.900Z,12.79
2018-11-02T14:20:31.492Z,12.78
2018-11-02T14:23:00.587Z,12.78
2018-11-02T14:26:32.879Z,12.75
2018-11-02T14:29:02.222Z,12.70
2018-11-02T14:31:31.898Z,12.64
2018-11-02T14:34:00.827Z,12.57
2018-11-02T14:36:29.779Z,12.52
2018-11-02T14:38:58.840Z,12.48
2018-11-02T14:41:28.644Z,12.42
2018-11-02T14:43:58.055Z,12.37
2018-11-02T14:46:27.685Z,12.34
2018-11-02T14:48:57.206Z,12.35
2018-11-02T14:51:26.143Z,12.35
2018-11-02T14:53:55.445Z,12.33
2018-11-02T14:56:25.279Z,12.32
2018-11-02T14:58:54.526Z,12.26
2018-11-02T15:01:24.128Z,12.23
2018-11-02T15:03:53.695Z,12.18
2018-11-02T15:06:23.420Z,12.11
2018-11-02T15:08:52.858Z,12.06
2018-11-02T15:11:22.128Z,12.01
2018-11-02T15:13:51.531Z,12.00
2018-11-02T15:16:21.021Z,11.98
2018-11-02T15:18:50.510Z,11.93
2018-11-02T15:21:19.506Z,11.90
2018-11-02T15:23:48.323Z,11.88
2018-11-02T15:26:17.342Z,11.87
2018-11-02T15:28:46.431Z,11.82
2018-11-02T15:31:15.679Z,11.80
2018-11-02T15:33:44.859Z,11.74
2018-11-02T15:36:14.054Z,11.67
2018-11-02T15:38:42.940Z,11.57
2018-11-02T15:41:12.930Z,11.50
2018-11-02T15:43:42.510Z,11.42
2018-11-02T15:46:12.169Z,11.35
2018-11-02T15:48:41.929Z,11.28
2018-11-02T15:51:10.832Z,11.20
2018-11-02T15:53:39.822Z,11.14
2018-11-02T15:56:08.813Z,11.07
2018-11-02T15:58:37.731Z,11.00
2018-11-02T16:01:07.317Z,10.96
2018-11-02T16:03:36.925Z,10.88
2018-11-02T16:06:06.506Z,10.83
2018-11-02T16:08:35.309Z,10.76
2018-11-02T16:11:04.319Z,10.70
2018-11-02T16:13:33.166Z,10.64
2018-11-02T16:16:02.199Z,10.59
2018-11-02T16:18:31.899Z,10.55
2018-11-02T16:21:00.736Z,10.50
2018-11-02T16:23:29.554Z,10.46
2018-11-02T16:25:59.350Z,10.39
2018-11-02T16:28:28.140Z,10.36
2018-11-02T16:30:56.939Z,10.34
2018-11-02T16:33:26.422Z,10.32
2018-11-02T16:35:55.731Z,10.25
2018-11-02T16:38:24.829Z,10.30
2018-11-02T16:40:54.833Z,10.30
2018-11-02T16:43:24.589Z,10.31
2018-11-02T16:45:54.116Z,10.32
2018-11-02T16:48:24.082Z,10.32
2018-11-02T16:50:54.652Z,10.42
2018-11-02T16:53:23.456Z,10.47
2018-11-02T16:55:52.510Z,10.52
2018-11-02T16:58:21.968Z,10.58
2018-11-02T17:00:51.598Z,10.64
2018-11-02T17:03:20.424Z,10.67
2018-11-02T17:05:50.369Z,10.70
2018-11-02T17:08:19.334Z,10.71
2018-11-02T17:10:48.362Z,10.71
2018-11-02T17:13:17.304Z,10.75
2018-11-02T17:15:46.407Z,10.77
2018-11-02T17:18:15.523Z,10.78
2018-11-02T17:20:45.095Z,10.80
2018-11-02T17:23:13.883Z,10.80
2018-11-02T17:25:42.676Z,10.82
2018-11-02T17:28:11.519Z,10.83
2018-11-02T17:30:40.304Z,10.83
2018-11-02T17:33:09.244Z,10.81
2018-11-02T17:35:38.117Z,10.81
2018-11-02T17:38:07.592Z,10.83
2018-11-02T17:40:36.926Z,10.83
2018-11-02T17:43:06.453Z,10.87
2018-11-02T17:45:35.827Z,10.89
2018-11-02T17:48:04.893Z,10.92
2018-11-02T17:50:34.588Z,10.95
2018-11-02T17:53:03.474Z,10.97
2018-11-02T17:55:33.159Z,10.99
2018-11-02T17:58:01.935Z,11.03
2018-11-02T18:00:31.447Z,11.03
2018-11-02T18:03:00.236Z,11.03
2018-11-02T18:05:29.696Z,11.03
2018-11-02T18:07:58.518Z,11.05
2018-11-02T18:10:27.382Z,11.07
2018-11-02T18:12:56.218Z,11.11
2018-11-02T18:15:25.331Z,11.12
2018-11-02T18:17:54.527Z,11.13
2018-11-02T18:20:24.544Z,11.16
2018-11-02T18:22:53.628Z,11.17
2018-11-02T18:25:53.363Z,11.19
2018-11-02T18:28:22.616Z,11.19
2018-11-02T18:30:51.838Z,11.21
2018-11-02T18:33:20.949Z,11.20
2018-11-02T18:35:49.977Z,11.23
2018-11-02T18:38:18.889Z,11.25
2018-11-02T18:40:48.368Z,11.30
2018-11-02T18:43:18.171Z,11.33
2018-11-02T18:45:47.941Z,11.33
2018-11-02T18:48:17.590Z,11.37
2018-11-02T18:50:47.393Z,11.38
2018-11-02T18:53:16.919Z,11.36
2018-11-02T18:55:46.004Z,11.38
2018-11-02T18:58:15.034Z,11.37
2018-11-02T19:00:44.435Z,11.39
2018-11-02T19:03:13.303Z,11.38
2018-11-02T19:05:42.754Z,11.36
2018-11-02T19:08:11.506Z,11.35
2018-11-02T19:10:40.385Z,11.35
2018-11-02T19:13:09.337Z,11.35
2018-11-02T19:15:38.187Z,11.36
2018-11-02T19:18:07.274Z,11.37
2018-11-02T19:20:36.772Z,11.37
2018-11-02T19:23:05.608Z,11.37
2018-11-02T19:25:34.499Z,11.36
2018-11-02T19:28:03.446Z,11.39
2018-11-02T19:30:32.310Z,11.37
2018-11-02T19:33:01.596Z,11.38
2018-11-02T19:35:30.582Z,11.37
2018-11-02T19:37:59.567Z,11.39
2018-11-02T19:40:28.466Z,11.38
2018-11-02T19:42:58.076Z,11.36
2018-11-02T19:45:28.192Z,11.35
2018-11-02T19:48:03.312Z,11.32
2018-11-02T19:50:33.862Z,11.28
2018-11-02T19:53:02.903Z,11.30
2018-11-02T19:55:36.280Z,11.32
2018-11-02T19:58:05.227Z,11.30
2018-11-02T20:00:34.769Z,11.30
2018-11-02T20:03:03.627Z,11.30
2018-11-02T20:05:32.966Z,11.30
2018-11-02T20:08:01.882Z,11.26
2018-11-02T20:10:32.262Z,11.25
2018-11-02T20:13:01.345Z,11.21
2018-11-02T20:15:30.315Z,11.17
2018-11-02T20:17:59.238Z,11.17
2018-11-02T20:20:28.929Z,11.17
2018-11-02T20:22:57.747Z,11.16
2018-11-02T20:25:26.630Z,11.18
2018-11-02T20:27:55.899Z,11.18
2018-11-02T20:30:24.896Z,11.19
2018-11-02T20:32:54.713Z,11.20
2018-11-02T20:35:23.752Z,11.25
2018-11-02T20:37:53.045Z,11.28
2018-11-02T20:40:22.054Z,11.28
2018-11-02T20:42:52.591Z,11.22
2018-11-02T20:45:22.342Z,11.23
2018-11-02T20:47:52.842Z,11.25
2018-11-02T20:50:22.441Z,11.26
2018-11-02T20:52:53.365Z,11.26
2018-11-02T20:55:23.264Z,11.27
2018-11-02T20:57:53.448Z,11.26
2018-11-02T21:00:24.253Z,11.26
2018-11-02T21:02:55.032Z,11.24
2018-11-02T21:05:24.683Z,11.25
2018-11-02T21:07:54.069Z,11.28
2018-11-02T21:10:23.561Z,11.30
2018-11-02T21:12:53.748Z,11.31
2018-11-02T21:15:24.038Z,11.32
2018-11-02T21:17:53.852Z,11.33
2018-11-02T21:20:24.686Z,11.36
2018-11-02T21:22:53.559Z,11.38
2018-11-02T21:25:22.898Z,11.42
2018-11-02T21:27:56.402Z,11.46
2018-11-02T21:30:26.465Z,11.42
2018-11-02T21:32:56.301Z,11.45
2018-11-02T21:35:25.711Z,11.47
2018-11-02T21:37:54.767Z,11.48
2018-11-02T21:40:24.885Z,11.49
2018-11-02T21:42:55.079Z,11.49
2018-11-02T21:45:25.811Z,11.48
2018-11-02T21:47:55.690Z,11.47
2018-11-02T21:50:25.411Z,11.46
2018-11-02T21:52:55.728Z,11.45
2018-11-02T21:55:25.647Z,11.41
2018-11-02T21:57:54.733Z,11.39
2018-11-02T22:00:24.510Z,11.39
2018-11-02T22:02:53.835Z,11.39
2018-11-02T22:05:23.662Z,11.37
2018-11-02T22:07:53.573Z,11.37
2018-11-02T22:13:54.505Z,11.29
2018-11-02T22:16:23.788Z,11.25
2018-11-02T22:18:53.763Z,11.22
2018-11-02T22:21:23.116Z,11.22
2018-11-02T22:23:52.310Z,11.22
2018-11-02T22:26:21.565Z,11.21
2018-11-02T22:28:50.646Z,11.20
2018-11-02T22:31:25.115Z,11.20
2018-11-02T22:33:54.544Z,11.20
2018-11-02T22:36:24.000Z,11.22
2018-11-02T22:38:53.296Z,11.18
2018-11-02T22:41:23.145Z,11.18
2018-11-02T22:43:53.033Z,11.17
2018-11-02T22:46:23.633Z,11.16
2018-11-02T22:48:53.513Z,11.14
2018-11-02T22:51:23.407Z,11.12
2018-11-02T22:53:52.568Z,11.13
2018-11-02T22:56:21.657Z,11.15
2018-11-02T22:58:50.591Z,11.16
2018-11-02T23:01:25.438Z,11.17
2018-11-02T23:03:55.249Z,11.18
2018-11-02T23:06:25.151Z,11.22
2018-11-02T23:08:55.032Z,11.19
2018-11-02T23:11:24.344Z,11.18
2018-11-02T23:13:53.401Z,11.17
2018-11-02T23:16:23.367Z,11.15
2018-11-02T23:18:53.799Z,11.13
2018-11-02T23:21:22.692Z,11.09
2018-11-02T23:23:51.559Z,11.08
2018-11-02T23:26:21.171Z,11.09
2018-11-02T23:28:50.112Z,11.08
2018-11-02T23:31:19.047Z,11.09
2018-11-02T23:33:47.987Z,11.10
2018-11-02T23:36:17.222Z,11.09
2018-11-02T23:38:46.342Z,11.12
2018-11-02T23:41:16.661Z,11.11
2018-11-02T23:43:46.583Z,11.12
2018-11-02T23:46:16.160Z,11.11
2018-11-02T23:48:46.045Z,11.09
2018-11-02T23:51:15.843Z,11.08
2018-11-02T23:53:44.825Z,11.06
2018-11-02T23:56:14.436Z,11.03
2018-11-02T23:58:43.382Z,11.00
